sensor_id;sensor_type;location;lat;lon;timestamp;P1;durP1;ratioP1;P2;durP2;ratioP2
74626;SDS011;63132;52.268;5.192;2022-09-27T00:01:58;8.07;;;1.03;;
74626;SDS011;63132;52.268;5.192;2022-09-27T00:04:24;7.18;;;1.10;;
74626;SDS011;63132;52.268;5.192;2022-09-27T00:06:50;8.03;;;1.00;;
74626;SDS011;63132;52.268;5.192;2022-09-27T00:09:15;7.40;;;1.00;;
74626;SDS011;63132;52.268;5.192;2022-09-27T00:11:41;7.35;;;1.02;;
74626;SDS011;63132;52.268;5.192;2022-09-27T00:14:07;8.68;;;1.23;;
74626;SDS011;63132;52.268;5.192;2022-09-27T00:16:36;7.00;;;1.10;;
74626;SDS011;63132;52.268;5.192;2022-09-27T00:19:04;5.38;;;0.80;;
74626;SDS011;63132;52.268;5.192;2022-09-27T00:21:32;8.80;;;0.95;;
74626;SDS011;63132;52.268;5.192;2022-09-27T00:23:58;4.68;;;0.70;;
74626;SDS011;63132;52.268;5.192;2022-09-27T00:26:24;6.40;;;1.00;;
74626;SDS011;63132;52.268;5.192;2022-09-27T00:28:49;8.93;;;1.03;;
74626;SDS011;63132;52.268;5.192;2022-09-27T00:31:25;8.23;;;0.90;;
74626;SDS011;63132;52.268;5.192;2022-09-27T00:33:57;8.65;;;1.30;;
74626;SDS011;63132;52.268;5.192;2022-09-27T00:36:24;7.18;;;1.13;;
74626;SDS011;63132;52.268;5.192;2022-09-27T00:38:51;5.90;;;0.90;;
74626;SDS011;63132;52.268;5.192;2022-09-27T00:41:24;6.03;;;0.80;;
74626;SDS011;63132;52.268;5.192;2022-09-27T00:43:55;7.32;;;1.00;;
74626;SDS011;63132;52.268;5.192;2022-09-27T00:46:39;6.28;;;1.20;;
74626;SDS011;63132;52.268;5.192;2022-09-27T00:49:12;6.60;;;1.48;;
74626;SDS011;63132;52.268;5.192;2022-09-27T00:51:48;7.22;;;0.93;;
74626;SDS011;63132;52.268;5.192;2022-09-27T00:54:19;9.70;;;1.42;;
74626;SDS011;63132;52.268;5.192;2022-09-27T00:56:48;3.80;;;0.75;;
74626;SDS011;63132;52.268;5.192;2022-09-27T01:01:55;9.65;;;1.33;;
74626;SDS011;63132;52.268;5.192;2022-09-27T01:04:21;4.97;;;1.13;;
74626;SDS011;63132;52.268;5.192;2022-09-27T01:06:50;7.55;;;1.10;;
74626;SDS011;63132;52.268;5.192;2022-09-27T01:09:15;11.20;;;1.73;;
74626;SDS011;63132;52.268;5.192;2022-09-27T01:11:50;5.37;;;0.83;;
74626;SDS011;63132;52.268;5.192;2022-09-27T01:14:42;3.65;;;1.10;;
74626;SDS011;63132;52.268;5.192;2022-09-27T01:23:03;6.35;;;1.00;;
74626;SDS011;63132;52.268;5.192;2022-09-27T01:33:45;6.47;;;1.17;;
74626;SDS011;63132;52.268;5.192;2022-09-27T01:38:44;5.57;;;1.30;;
74626;SDS011;63132;52.268;5.192;2022-09-27T01:41:25;7.82;;;1.10;;
74626;SDS011;63132;52.268;5.192;2022-09-27T01:44:03;13.05;;;1.40;;
74626;SDS011;63132;52.268;5.192;2022-09-27T01:46:35;8.50;;;1.30;;
74626;SDS011;63132;52.268;5.192;2022-09-27T01:49:09;7.57;;;1.80;;
74626;SDS011;63132;52.268;5.192;2022-09-27T01:51:58;10.75;;;1.70;;
74626;SDS011;63132;52.268;5.192;2022-09-27T01:54:36;5.72;;;1.30;;
74626;SDS011;63132;52.268;5.192;2022-09-27T01:57:07;9.10;;;1.15;;
74626;SDS011;63132;52.268;5.192;2022-09-27T01:59:57;8.23;;;1.40;;
74626;SDS011;63132;52.268;5.192;2022-09-27T02:02:24;10.48;;;1.88;;
74626;SDS011;63132;52.268;5.192;2022-09-27T02:04:54;6.87;;;1.47;;
74626;SDS011;63132;52.268;5.192;2022-09-27T02:07:24;9.05;;;1.38;;
74626;SDS011;63132;52.268;5.192;2022-09-27T02:09:57;8.50;;;1.30;;
74626;SDS011;63132;52.268;5.192;2022-09-27T02:12:27;8.85;;;1.55;;
74626;SDS011;63132;52.268;5.192;2022-09-27T02:15:03;7.47;;;1.55;;
74626;SDS011;63132;52.268;5.192;2022-09-27T02:17:36;9.00;;;1.50;;
74626;SDS011;63132;52.268;5.192;2022-09-27T02:23:01;8.10;;;1.52;;
74626;SDS011;63132;52.268;5.192;2022-09-27T02:25:29;9.52;;;1.65;;
74626;SDS011;63132;52.268;5.192;2022-09-27T02:28:12;8.98;;;1.58;;
74626;SDS011;63132;52.268;5.192;2022-09-27T02:30:46;13.57;;;1.92;;
74626;SDS011;63132;52.268;5.192;2022-09-27T02:33:12;13.07;;;1.97;;
74626;SDS011;63132;52.268;5.192;2022-09-27T02:35:37;14.20;;;2.43;;
74626;SDS011;63132;52.268;5.192;2022-09-27T02:38:03;11.47;;;1.83;;
74626;SDS011;63132;52.268;5.192;2022-09-27T02:40:31;16.15;;;2.03;;
74626;SDS011;63132;52.268;5.192;2022-09-27T02:42:58;12.27;;;2.15;;
74626;SDS011;63132;52.268;5.192;2022-09-27T02:45:28;11.98;;;2.25;;
74626;SDS011;63132;52.268;5.192;2022-09-27T02:53:31;13.95;;;2.17;;
74626;SDS011;63132;52.268;5.192;2022-09-27T03:04:43;11.85;;;1.92;;
74626;SDS011;63132;52.268;5.192;2022-09-27T03:07:15;8.70;;;1.52;;
74626;SDS011;63132;52.268;5.192;2022-09-27T03:12:12;11.23;;;1.52;;
74626;SDS011;63132;52.268;5.192;2022-09-27T03:14:38;6.95;;;1.60;;
74626;SDS011;63132;52.268;5.192;2022-09-27T03:17:04;10.02;;;1.70;;
74626;SDS011;63132;52.268;5.192;2022-09-27T03:19:29;12.13;;;1.80;;
74626;SDS011;63132;52.268;5.192;2022-09-27T03:21:55;9.20;;;1.50;;
74626;SDS011;63132;52.268;5.192;2022-09-27T03:24:20;11.50;;;1.50;;
74626;SDS011;63132;52.268;5.192;2022-09-27T03:26:45;6.88;;;1.40;;
74626;SDS011;63132;52.268;5.192;2022-09-27T03:29:11;13.00;;;1.83;;
74626;SDS011;63132;52.268;5.192;2022-09-27T03:31:36;12.70;;;1.93;;
74626;SDS011;63132;52.268;5.192;2022-09-27T03:34:02;10.10;;;1.27;;
74626;SDS011;63132;52.268;5.192;2022-09-27T03:36:27;10.73;;;1.93;;
74626;SDS011;63132;52.268;5.192;2022-09-27T03:38:52;9.20;;;1.50;;
74626;SDS011;63132;52.268;5.192;2022-09-27T03:41:18;13.95;;;1.70;;
74626;SDS011;63132;52.268;5.192;2022-09-27T03:43:44;9.83;;;1.50;;
74626;SDS011;63132;52.268;5.192;2022-09-27T03:46:09;10.70;;;1.73;;
74626;SDS011;63132;52.268;5.192;2022-09-27T03:48:35;12.20;;;2.03;;
74626;SDS011;63132;52.268;5.192;2022-09-27T03:51:01;10.88;;;1.52;;
74626;SDS011;63132;52.268;5.192;2022-09-27T03:53:28;10.00;;;1.45;;
74626;SDS011;63132;52.268;5.192;2022-09-27T03:55:54;9.77;;;1.47;;
74626;SDS011;63132;52.268;5.192;2022-09-27T03:58:19;8.52;;;1.30;;
74626;SDS011;63132;52.268;5.192;2022-09-27T04:00:45;9.23;;;1.47;;
74626;SDS011;63132;52.268;5.192;2022-09-27T04:03:10;10.67;;;1.50;;
74626;SDS011;63132;52.268;5.192;2022-09-27T04:05:36;9.67;;;1.60;;
74626;SDS011;63132;52.268;5.192;2022-09-27T04:08:01;10.05;;;2.05;;
74626;SDS011;63132;52.268;5.192;2022-09-27T04:10:27;14.13;;;1.90;;
74626;SDS011;63132;52.268;5.192;2022-09-27T04:12:52;9.00;;;1.23;;
74626;SDS011;63132;52.268;5.192;2022-09-27T04:15:18;12.10;;;1.70;;
74626;SDS011;63132;52.268;5.192;2022-09-27T04:17:43;12.93;;;1.60;;
74626;SDS011;63132;52.268;5.192;2022-09-27T04:20:09;11.68;;;1.70;;
74626;SDS011;63132;52.268;5.192;2022-09-27T04:22:41;9.87;;;1.80;;
74626;SDS011;63132;52.268;5.192;2022-09-27T04:25:08;13.60;;;1.80;;
74626;SDS011;63132;52.268;5.192;2022-09-27T04:27:34;10.13;;;1.50;;
74626;SDS011;63132;52.268;5.192;2022-09-27T04:29:59;11.27;;;2.03;;
74626;SDS011;63132;52.268;5.192;2022-09-27T04:32:25;8.10;;;1.57;;
74626;SDS011;63132;52.268;5.192;2022-09-27T04:34:50;7.47;;;1.80;;
74626;SDS011;63132;52.268;5.192;2022-09-27T04:37:34;11.63;;;1.87;;
74626;SDS011;63132;52.268;5.192;2022-09-27T04:40:01;10.13;;;1.83;;
74626;SDS011;63132;52.268;5.192;2022-09-27T04:42:27;9.80;;;1.70;;
74626;SDS011;63132;52.268;5.192;2022-09-27T04:44:52;11.73;;;1.80;;
74626;SDS011;63132;52.268;5.192;2022-09-27T04:47:17;8.33;;;2.30;;
74626;SDS011;63132;52.268;5.192;2022-09-27T04:49:45;12.47;;;2.07;;
74626;SDS011;63132;52.268;5.192;2022-09-27T04:52:11;11.57;;;2.20;;
74626;SDS011;63132;52.268;5.192;2022-09-27T04:54:36;12.37;;;2.10;;
74626;SDS011;63132;52.268;5.192;2022-09-27T04:57:02;13.57;;;2.00;;
74626;SDS011;63132;52.268;5.192;2022-09-27T04:59:27;12.47;;;2.10;;
74626;SDS011;63132;52.268;5.192;2022-09-27T05:01:53;8.17;;;1.80;;
74626;SDS011;63132;52.268;5.192;2022-09-27T05:04:19;13.03;;;2.10;;
74626;SDS011;63132;52.268;5.192;2022-09-27T05:06:44;9.57;;;1.80;;
74626;SDS011;63132;52.268;5.192;2022-09-27T05:09:09;15.33;;;1.93;;
74626;SDS011;63132;52.268;5.192;2022-09-27T05:11:35;9.37;;;1.80;;
74626;SDS011;63132;52.268;5.192;2022-09-27T05:14:02;9.57;;;1.65;;
74626;SDS011;63132;52.268;5.192;2022-09-27T05:16:28;8.13;;;1.80;;
74626;SDS011;63132;52.268;5.192;2022-09-27T05:18:53;11.30;;;2.20;;
74626;SDS011;63132;52.268;5.192;2022-09-27T05:21:19;11.70;;;1.77;;
74626;SDS011;63132;52.268;5.192;2022-09-27T05:23:44;11.33;;;2.00;;
74626;SDS011;63132;52.268;5.192;2022-09-27T05:26:10;7.30;;;1.43;;
74626;SDS011;63132;52.268;5.192;2022-09-27T05:28:35;9.37;;;1.60;;
74626;SDS011;63132;52.268;5.192;2022-09-27T05:31:01;8.60;;;1.60;;
74626;SDS011;63132;52.268;5.192;2022-09-27T05:33:27;10.27;;;1.73;;
74626;SDS011;63132;52.268;5.192;2022-09-27T05:35:56;9.57;;;1.75;;
74626;SDS011;63132;52.268;5.192;2022-09-27T05:38:22;9.65;;;1.70;;
74626;SDS011;63132;52.268;5.192;2022-09-27T05:40:49;10.52;;;1.75;;
74626;SDS011;63132;52.268;5.192;2022-09-27T05:43:16;10.63;;;1.95;;
74626;SDS011;63132;52.268;5.192;2022-09-27T05:45:42;13.90;;;1.73;;
74626;SDS011;63132;52.268;5.192;2022-09-27T05:48:08;9.15;;;2.00;;
74626;SDS011;63132;52.268;5.192;2022-09-27T05:50:36;8.55;;;1.85;;
74626;SDS011;63132;52.268;5.192;2022-09-27T05:53:02;11.68;;;1.80;;
74626;SDS011;63132;52.268;5.192;2022-09-27T05:55:27;13.88;;;1.95;;
74626;SDS011;63132;52.268;5.192;2022-09-27T05:58:00;12.82;;;1.83;;
74626;SDS011;63132;52.268;5.192;2022-09-27T06:00:28;14.75;;;2.20;;
74626;SDS011;63132;52.268;5.192;2022-09-27T06:02:55;14.32;;;2.13;;
74626;SDS011;63132;52.268;5.192;2022-09-27T06:05:25;12.60;;;2.00;;
74626;SDS011;63132;52.268;5.192;2022-09-27T06:07:56;11.52;;;1.90;;
74626;SDS011;63132;52.268;5.192;2022-09-27T06:10:23;15.00;;;2.28;;
74626;SDS011;63132;52.268;5.192;2022-09-27T06:12:49;14.35;;;2.50;;
74626;SDS011;63132;52.268;5.192;2022-09-27T06:15:14;12.77;;;2.33;;
74626;SDS011;63132;52.268;5.192;2022-09-27T06:17:40;8.80;;;2.13;;
74626;SDS011;63132;52.268;5.192;2022-09-27T06:20:05;16.88;;;2.67;;
74626;SDS011;63132;52.268;5.192;2022-09-27T06:22:32;15.15;;;2.30;;
74626;SDS011;63132;52.268;5.192;2022-09-27T06:24:58;11.43;;;1.70;;
74626;SDS011;63132;52.268;5.192;2022-09-27T06:27:24;9.43;;;2.00;;
74626;SDS011;63132;52.268;5.192;2022-09-27T06:29:50;10.20;;;2.58;;
74626;SDS011;63132;52.268;5.192;2022-09-27T06:32:16;12.10;;;2.33;;
74626;SDS011;63132;52.268;5.192;2022-09-27T06:34:41;12.90;;;2.33;;
74626;SDS011;63132;52.268;5.192;2022-09-27T06:37:06;10.40;;;2.13;;
74626;SDS011;63132;52.268;5.192;2022-09-27T06:39:32;9.23;;;2.30;;
74626;SDS011;63132;52.268;5.192;2022-09-27T06:41:58;10.38;;;2.28;;
74626;SDS011;63132;52.268;5.192;2022-09-27T06:44:24;11.68;;;2.03;;
74626;SDS011;63132;52.268;5.192;2022-09-27T06:46:50;8.27;;;2.05;;
74626;SDS011;63132;52.268;5.192;2022-09-27T06:49:17;6.55;;;1.63;;
74626;SDS011;63132;52.268;5.192;2022-09-27T06:51:43;7.28;;;1.90;;
74626;SDS011;63132;52.268;5.192;2022-09-27T06:54:09;8.52;;;1.70;;
74626;SDS011;63132;52.268;5.192;2022-09-27T06:56:34;10.25;;;1.73;;
74626;SDS011;63132;52.268;5.192;2022-09-27T06:59:00;7.40;;;1.70;;
74626;SDS011;63132;52.268;5.192;2022-09-27T07:01:44;5.95;;;1.40;;
74626;SDS011;63132;52.268;5.192;2022-09-27T07:04:10;10.00;;;1.60;;
74626;SDS011;63132;52.268;5.192;2022-09-27T07:06:36;20.20;;;2.85;;
74626;SDS011;63132;52.268;5.192;2022-09-27T07:09:02;7.70;;;1.90;;
74626;SDS011;63132;52.268;5.192;2022-09-27T07:11:28;8.18;;;1.60;;
74626;SDS011;63132;52.268;5.192;2022-09-27T07:13:54;9.90;;;1.65;;
74626;SDS011;63132;52.268;5.192;2022-09-27T07:16:20;9.57;;;1.65;;
74626;SDS011;63132;52.268;5.192;2022-09-27T07:18:46;9.38;;;1.52;;
74626;SDS011;63132;52.268;5.192;2022-09-27T07:21:12;8.70;;;1.60;;
74626;SDS011;63132;52.268;5.192;2022-09-27T07:23:40;8.80;;;1.40;;
74626;SDS011;63132;52.268;5.192;2022-09-27T07:26:05;4.83;;;1.20;;
74626;SDS011;63132;52.268;5.192;2022-09-27T07:28:34;5.55;;;1.30;;
74626;SDS011;63132;52.268;5.192;2022-09-27T07:31:01;5.05;;;1.23;;
74626;SDS011;63132;52.268;5.192;2022-09-27T07:33:28;8.85;;;1.45;;
74626;SDS011;63132;52.268;5.192;2022-09-27T07:35:54;9.63;;;1.60;;
74626;SDS011;63132;52.268;5.192;2022-09-27T07:38:19;5.10;;;1.37;;
74626;SDS011;63132;52.268;5.192;2022-09-27T07:40:45;8.27;;;1.23;;
74626;SDS011;63132;52.268;5.192;2022-09-27T07:43:10;7.68;;;1.20;;
74626;SDS011;63132;52.268;5.192;2022-09-27T07:45:36;6.22;;;1.38;;
74626;SDS011;63132;52.268;5.192;2022-09-27T07:48:09;5.55;;;1.10;;
74626;SDS011;63132;52.268;5.192;2022-09-27T07:50:38;6.05;;;1.38;;
74626;SDS011;63132;52.268;5.192;2022-09-27T07:53:03;7.23;;;1.50;;
74626;SDS011;63132;52.268;5.192;2022-09-27T07:55:29;6.30;;;1.53;;
74626;SDS011;63132;52.268;5.192;2022-09-27T07:58:28;8.07;;;1.38;;
74626;SDS011;63132;52.268;5.192;2022-09-27T08:00:47;4.65;;;1.50;;
74626;SDS011;63132;52.268;5.192;2022-09-27T08:03:13;7.37;;;1.60;;
74626;SDS011;63132;52.268;5.192;2022-09-27T08:05:46;6.67;;;1.50;;
74626;SDS011;63132;52.268;5.192;2022-09-27T08:08:12;6.93;;;1.30;;
74626;SDS011;63132;52.268;5.192;2022-09-27T08:10:39;7.07;;;1.38;;
74626;SDS011;63132;52.268;5.192;2022-09-27T08:13:08;5.53;;;1.30;;
74626;SDS011;63132;52.268;5.192;2022-09-27T08:15:34;6.70;;;1.30;;
74626;SDS011;63132;52.268;5.192;2022-09-27T08:18:00;9.52;;;1.58;;
74626;SDS011;63132;52.268;5.192;2022-09-27T08:20:26;9.20;;;1.57;;
74626;SDS011;63132;52.268;5.192;2022-09-27T08:22:51;9.10;;;1.57;;
74626;SDS011;63132;52.268;5.192;2022-09-27T08:25:17;6.70;;;1.27;;
74626;SDS011;63132;52.268;5.192;2022-09-27T08:27:42;6.23;;;1.30;;
74626;SDS011;63132;52.268;5.192;2022-09-27T08:30:07;4.97;;;0.97;;
74626;SDS011;63132;52.268;5.192;2022-09-27T08:32:33;5.05;;;1.20;;
74626;SDS011;63132;52.268;5.192;2022-09-27T08:34:59;3.10;;;1.10;;
74626;SDS011;63132;52.268;5.192;2022-09-27T08:37:24;5.17;;;1.20;;
74626;SDS011;63132;52.268;5.192;2022-09-27T08:39:50;6.33;;;1.17;;
74626;SDS011;63132;52.268;5.192;2022-09-27T08:47:41;4.53;;;1.00;;
74626;SDS011;63132;52.268;5.192;2022-09-27T08:55:47;7.38;;;1.30;;
74626;SDS011;63132;52.268;5.192;2022-09-27T08:58:25;8.43;;;1.38;;
74626;SDS011;63132;52.268;5.192;2022-09-27T09:00:52;9.48;;;1.92;;
74626;SDS011;63132;52.268;5.192;2022-09-27T09:03:21;6.25;;;1.48;;
74626;SDS011;63132;52.268;5.192;2022-09-27T09:08:45;7.75;;;1.58;;
74626;SDS011;63132;52.268;5.192;2022-09-27T09:11:56;6.80;;;1.75;;
74626;SDS011;63132;52.268;5.192;2022-09-27T09:20:17;6.13;;;1.52;;
74626;SDS011;63132;52.268;5.192;2022-09-27T09:34:23;8.93;;;1.50;;
74626;SDS011;63132;52.268;5.192;2022-09-27T09:39:38;8.18;;;1.90;;
74626;SDS011;63132;52.268;5.192;2022-09-27T09:42:19;9.33;;;1.60;;
74626;SDS011;63132;52.268;5.192;2022-09-27T09:44:48;13.98;;;2.40;;
74626;SDS011;63132;52.268;5.192;2022-09-27T09:49:57;10.68;;;1.90;;
74626;SDS011;63132;52.268;5.192;2022-09-27T09:52:26;10.35;;;2.00;;
74626;SDS011;63132;52.268;5.192;2022-09-27T09:55:05;8.40;;;1.90;;
74626;SDS011;63132;52.268;5.192;2022-09-27T09:57:39;11.93;;;1.93;;
74626;SDS011;63132;52.268;5.192;2022-09-27T10:00:14;9.32;;;1.80;;
74626;SDS011;63132;52.268;5.192;2022-09-27T10:02:43;7.95;;;1.90;;
74626;SDS011;63132;52.268;5.192;2022-09-27T10:05:20;9.63;;;1.95;;
74626;SDS011;63132;52.268;5.192;2022-09-27T10:07:48;9.07;;;1.63;;
74626;SDS011;63132;52.268;5.192;2022-09-27T10:10:15;6.70;;;1.58;;
74626;SDS011;63132;52.268;5.192;2022-09-27T10:12:42;8.45;;;1.55;;
74626;SDS011;63132;52.268;5.192;2022-09-27T10:15:11;5.40;;;1.40;;
74626;SDS011;63132;52.268;5.192;2022-09-27T10:17:41;7.13;;;1.42;;
74626;SDS011;63132;52.268;5.192;2022-09-27T10:20:23;6.73;;;1.23;;
74626;SDS011;63132;52.268;5.192;2022-09-27T10:22:53;10.10;;;1.52;;
74626;SDS011;63132;52.268;5.192;2022-09-27T10:25:23;5.10;;;1.10;;
74626;SDS011;63132;52.268;5.192;2022-09-27T10:27:52;4.80;;;1.20;;
74626;SDS011;63132;52.268;5.192;2022-09-27T10:30:29;7.38;;;1.45;;
74626;SDS011;63132;52.268;5.192;2022-09-27T10:32:57;7.40;;;1.17;;
74626;SDS011;63132;52.268;5.192;2022-09-27T10:35:44;7.07;;;1.30;;
74626;SDS011;63132;52.268;5.192;2022-09-27T10:40:43;5.25;;;1.00;;
74626;SDS011;63132;52.268;5.192;2022-09-27T10:46:05;6.20;;;1.27;;
74626;SDS011;63132;52.268;5.192;2022-09-27T10:48:37;4.15;;;1.10;;
74626;SDS011;63132;52.268;5.192;2022-09-27T10:51:06;6.18;;;1.20;;
74626;SDS011;63132;52.268;5.192;2022-09-27T10:53:46;6.15;;;1.10;;
74626;SDS011;63132;52.268;5.192;2022-09-27T10:56:19;6.78;;;1.20;;
74626;SDS011;63132;52.268;5.192;2022-09-27T10:58:46;4.72;;;1.30;;
74626;SDS011;63132;52.268;5.192;2022-09-27T11:01:12;3.33;;;1.00;;
74626;SDS011;63132;52.268;5.192;2022-09-27T11:03:43;5.97;;;1.20;;
74626;SDS011;63132;52.268;5.192;2022-09-27T11:08:47;5.53;;;1.00;;
74626;SDS011;63132;52.268;5.192;2022-09-27T11:22:00;8.20;;;1.40;;
74626;SDS011;63132;52.268;5.192;2022-09-27T11:27:56;4.07;;;1.05;;
74626;SDS011;63132;52.268;5.192;2022-09-27T11:30:34;5.40;;;1.33;;
74626;SDS011;63132;52.268;5.192;2022-09-27T11:56:10;4.65;;;1.05;;
74626;SDS011;63132;52.268;5.192;2022-09-27T12:09:38;4.60;;;1.27;;
74626;SDS011;63132;52.268;5.192;2022-09-27T12:12:12;5.07;;;0.90;;
74626;SDS011;63132;52.268;5.192;2022-09-27T12:14:46;6.00;;;1.10;;
74626;SDS011;63132;52.268;5.192;2022-09-27T12:17:21;5.75;;;0.90;;
74626;SDS011;63132;52.268;5.192;2022-09-27T12:19:51;5.00;;;1.08;;
74626;SDS011;63132;52.268;5.192;2022-09-27T12:22:40;5.05;;;0.95;;
74626;SDS011;63132;52.268;5.192;2022-09-27T12:25:13;2.83;;;0.90;;
74626;SDS011;63132;52.268;5.192;2022-09-27T12:30:28;5.75;;;1.30;;
74626;SDS011;63132;52.268;5.192;2022-09-27T12:33:17;5.90;;;1.20;;
74626;SDS011;63132;52.268;5.192;2022-09-27T12:35:49;4.90;;;1.23;;
74626;SDS011;63132;52.268;5.192;2022-09-27T12:38:20;5.43;;;1.25;;
74626;SDS011;63132;52.268;5.192;2022-09-27T12:40:49;8.68;;;1.25;;
74626;SDS011;63132;52.268;5.192;2022-09-27T12:43:18;7.90;;;1.57;;
74626;SDS011;63132;52.268;5.192;2022-09-27T12:51:45;4.87;;;1.33;;
74626;SDS011;63132;52.268;5.192;2022-09-27T13:00:03;5.75;;;1.08;;
74626;SDS011;63132;52.268;5.192;2022-09-27T13:08:32;9.88;;;1.83;;
74626;SDS011;63132;52.268;5.192;2022-09-27T13:13:53;10.35;;;2.17;;
74626;SDS011;63132;52.268;5.192;2022-09-27T13:16:20;13.17;;;2.20;;
74626;SDS011;63132;52.268;5.192;2022-09-27T13:18:58;11.10;;;2.07;;
74626;SDS011;63132;52.268;5.192;2022-09-27T13:26:56;16.38;;;1.95;;
74626;SDS011;63132;52.268;5.192;2022-09-27T13:29:26;12.50;;;1.73;;
74626;SDS011;63132;52.268;5.192;2022-09-27T13:42:44;5.93;;;1.52;;
74626;SDS011;63132;52.268;5.192;2022-09-27T13:45:21;3.30;;;1.10;;
74626;SDS011;63132;52.268;5.192;2022-09-27T13:47:53;4.63;;;1.17;;
74626;SDS011;63132;52.268;5.192;2022-09-27T13:50:25;3.30;;;0.85;;
74626;SDS011;63132;52.268;5.192;2022-09-27T14:01:19;2.40;;;0.80;;
74626;SDS011;63132;52.268;5.192;2022-09-27T14:03:58;1.98;;;0.55;;
74626;SDS011;63132;52.268;5.192;2022-09-27T14:06:30;3.10;;;0.65;;
74626;SDS011;63132;52.268;5.192;2022-09-27T14:09:02;2.80;;;0.50;;
74626;SDS011;63132;52.268;5.192;2022-09-27T14:11:32;2.50;;;0.60;;
74626;SDS011;63132;52.268;5.192;2022-09-27T14:14:01;3.55;;;0.70;;
74626;SDS011;63132;52.268;5.192;2022-09-27T14:16:29;2.70;;;0.60;;
74626;SDS011;63132;52.268;5.192;2022-09-27T14:19:00;2.83;;;0.80;;
74626;SDS011;63132;52.268;5.192;2022-09-27T14:26:43;5.22;;;1.00;;
74626;SDS011;63132;52.268;5.192;2022-09-27T14:29:19;7.07;;;1.30;;
74626;SDS011;63132;52.268;5.192;2022-09-27T14:31:46;4.53;;;0.80;;
74626;SDS011;63132;52.268;5.192;2022-09-27T14:34:14;5.87;;;1.07;;
74626;SDS011;63132;52.268;5.192;2022-09-27T14:36:42;2.47;;;0.77;;
74626;SDS011;63132;52.268;5.192;2022-09-27T14:39:28;4.00;;;0.75;;
74626;SDS011;63132;52.268;5.192;2022-09-27T14:42:01;4.40;;;1.25;;
74626;SDS011;63132;52.268;5.192;2022-09-27T14:44:29;3.35;;;1.10;;
74626;SDS011;63132;52.268;5.192;2022-09-27T14:49:34;3.28;;;0.77;;
74626;SDS011;63132;52.268;5.192;2022-09-27T14:51:59;5.95;;;1.20;;
74626;SDS011;63132;52.268;5.192;2022-09-27T14:54:26;4.13;;;1.00;;
74626;SDS011;63132;52.268;5.192;2022-09-27T14:56:54;3.45;;;1.30;;
74626;SDS011;63132;52.268;5.192;2022-09-27T14:59:26;3.35;;;0.80;;
74626;SDS011;63132;52.268;5.192;2022-09-27T15:01:58;5.53;;;1.17;;
74626;SDS011;63132;52.268;5.192;2022-09-27T15:04:30;3.60;;;1.10;;
74626;SDS011;63132;52.268;5.192;2022-09-27T15:06:59;4.95;;;1.35;;
74626;SDS011;63132;52.268;5.192;2022-09-27T15:09:26;2.97;;;1.48;;
74626;SDS011;63132;52.268;5.192;2022-09-27T15:11:54;3.50;;;1.38;;
74626;SDS011;63132;52.268;5.192;2022-09-27T15:14:22;5.03;;;1.75;;
74626;SDS011;63132;52.268;5.192;2022-09-27T15:16:52;5.70;;;1.70;;
74626;SDS011;63132;52.268;5.192;2022-09-27T15:19:22;5.20;;;1.63;;
74626;SDS011;63132;52.268;5.192;2022-09-27T15:21:50;5.85;;;1.60;;
74626;SDS011;63132;52.268;5.192;2022-09-27T15:24:36;6.32;;;1.60;;
74626;SDS011;63132;52.268;5.192;2022-09-27T15:27:17;4.65;;;1.73;;
74626;SDS011;63132;52.268;5.192;2022-09-27T15:29:53;4.80;;;1.67;;
74626;SDS011;63132;52.268;5.192;2022-09-27T15:32:21;6.10;;;1.67;;
74626;SDS011;63132;52.268;5.192;2022-09-27T15:34:48;6.20;;;1.90;;
74626;SDS011;63132;52.268;5.192;2022-09-27T15:37:24;5.35;;;1.83;;
74626;SDS011;63132;52.268;5.192;2022-09-27T15:39:52;4.35;;;1.70;;
74626;SDS011;63132;52.268;5.192;2022-09-27T15:42:17;4.77;;;1.70;;
74626;SDS011;63132;52.268;5.192;2022-09-27T15:49:58;7.53;;;3.10;;
74626;SDS011;63132;52.268;5.192;2022-09-27T15:52:44;6.47;;;2.30;;
74626;SDS011;63132;52.268;5.192;2022-09-27T15:55:16;8.43;;;3.38;;
74626;SDS011;63132;52.268;5.192;2022-09-27T15:57:47;8.88;;;3.60;;
74626;SDS011;63132;52.268;5.192;2022-09-27T16:00:17;11.80;;;3.45;;
74626;SDS011;63132;52.268;5.192;2022-09-27T16:02:44;9.80;;;3.27;;
74626;SDS011;63132;52.268;5.192;2022-09-27T16:05:10;15.43;;;5.07;;
74626;SDS011;63132;52.268;5.192;2022-09-27T16:07:36;7.03;;;4.00;;
74626;SDS011;63132;52.268;5.192;2022-09-27T16:10:08;8.20;;;3.70;;
74626;SDS011;63132;52.268;5.192;2022-09-27T16:12:38;6.90;;;3.50;;
74626;SDS011;63132;52.268;5.192;2022-09-27T16:15:03;9.80;;;3.60;;
74626;SDS011;63132;52.268;5.192;2022-09-27T16:17:29;8.20;;;3.28;;
74626;SDS011;63132;52.268;5.192;2022-09-27T16:19:54;7.40;;;3.40;;
74626;SDS011;63132;52.268;5.192;2022-09-27T16:22:20;9.80;;;3.70;;
74626;SDS011;63132;52.268;5.192;2022-09-27T16:24:45;6.50;;;3.00;;
74626;SDS011;63132;52.268;5.192;2022-09-27T16:27:20;6.55;;;2.65;;
74626;SDS011;63132;52.268;5.192;2022-09-27T16:29:47;7.18;;;2.60;;
74626;SDS011;63132;52.268;5.192;2022-09-27T16:32:13;6.93;;;2.47;;
74626;SDS011;63132;52.268;5.192;2022-09-27T16:34:38;8.03;;;2.93;;
74626;SDS011;63132;52.268;5.192;2022-09-27T16:37:03;8.68;;;3.05;;
74626;SDS011;63132;52.268;5.192;2022-09-27T16:39:29;7.00;;;2.60;;
74626;SDS011;63132;52.268;5.192;2022-09-27T16:41:55;9.05;;;2.63;;
74626;SDS011;63132;52.268;5.192;2022-09-27T16:44:20;6.80;;;2.30;;
74626;SDS011;63132;52.268;5.192;2022-09-27T16:46:45;8.07;;;2.40;;
74626;SDS011;63132;52.268;5.192;2022-09-27T16:49:11;5.43;;;1.70;;
74626;SDS011;63132;52.268;5.192;2022-09-27T16:51:55;5.50;;;1.90;;
74626;SDS011;63132;52.268;5.192;2022-09-27T16:54:23;7.82;;;2.25;;
74626;SDS011;63132;52.268;5.192;2022-09-27T16:56:49;6.60;;;2.10;;
74626;SDS011;63132;52.268;5.192;2022-09-27T16:59:15;7.30;;;2.70;;
74626;SDS011;63132;52.268;5.192;2022-09-27T17:01:40;8.57;;;2.65;;
74626;SDS011;63132;52.268;5.192;2022-09-27T17:04:05;8.03;;;2.63;;
74626;SDS011;63132;52.268;5.192;2022-09-27T17:06:31;8.43;;;2.60;;
74626;SDS011;63132;52.268;5.192;2022-09-27T17:08:56;8.00;;;2.70;;
74626;SDS011;63132;52.268;5.192;2022-09-27T17:11:25;10.93;;;3.30;;
74626;SDS011;63132;52.268;5.192;2022-09-27T17:13:52;9.53;;;3.27;;
74626;SDS011;63132;52.268;5.192;2022-09-27T17:16:19;6.95;;;2.97;;
74626;SDS011;63132;52.268;5.192;2022-09-27T17:18:45;10.30;;;3.22;;
74626;SDS011;63132;52.268;5.192;2022-09-27T17:21:10;7.00;;;2.80;;
74626;SDS011;63132;52.268;5.192;2022-09-27T17:23:36;7.80;;;3.00;;
74626;SDS011;63132;52.268;5.192;2022-09-27T17:26:06;9.73;;;3.33;;
74626;SDS011;63132;52.268;5.192;2022-09-27T17:28:40;6.80;;;3.50;;
74626;SDS011;63132;52.268;5.192;2022-09-27T17:31:07;6.77;;;2.90;;
74626;SDS011;63132;52.268;5.192;2022-09-27T17:33:36;9.15;;;2.80;;
74626;SDS011;63132;52.268;5.192;2022-09-27T17:36:15;6.03;;;2.30;;
74626;SDS011;63132;52.268;5.192;2022-09-27T17:38:47;7.38;;;2.17;;
74626;SDS011;63132;52.268;5.192;2022-09-27T17:41:14;4.70;;;1.70;;
74626;SDS011;63132;52.268;5.192;2022-09-27T17:43:41;6.15;;;1.90;;
74626;SDS011;63132;52.268;5.192;2022-09-27T17:46:13;10.48;;;1.98;;
74626;SDS011;63132;52.268;5.192;2022-09-27T17:48:38;9.05;;;2.60;;
74626;SDS011;63132;52.268;5.192;2022-09-27T17:51:22;8.55;;;2.65;;
74626;SDS011;63132;52.268;5.192;2022-09-27T17:53:48;11.02;;;2.60;;
74626;SDS011;63132;52.268;5.192;2022-09-27T17:56:14;7.82;;;2.60;;
74626;SDS011;63132;52.268;5.192;2022-09-27T17:58:47;13.90;;;3.43;;
74626;SDS011;63132;52.268;5.192;2022-09-27T18:01:13;7.68;;;3.00;;
74626;SDS011;63132;52.268;5.192;2022-09-27T18:03:39;9.57;;;3.70;;
74626;SDS011;63132;52.268;5.192;2022-09-27T18:06:05;9.03;;;5.30;;
74626;SDS011;63132;52.268;5.192;2022-09-27T18:08:32;10.55;;;5.72;;